sensor_id;sensor_type;location;lat;lon;timestamp;pressure;altitude;pressure_sealevel;temperature;humidity
72925;BME280;61070;50.794;7.054;2024-02-14T00:00:31;101088.38;;;8.29;69.23
72925;BME280;61070;50.794;7.054;2024-02-14T00:01:32;101086.81;;;8.23;69.75
72925;BME280;61070;50.794;7.054;2024-02-14T00:02:32;101092.88;;;8.24;69.75
72925;BME280;61070;50.794;7.054;2024-02-14T00:03:33;101078.19;;;8.20;69.81
72925;BME280;61070;50.794;7.054;2024-02-14T00:04:33;101084.09;;;8.26;69.55
72925;BME280;61070;50.794;7.054;2024-02-14T00:05:34;101081.56;;;8.23;69.57
72925;BME280;61070;50.794;7.054;2024-02-14T00:06:35;101085.19;;;8.19;69.98
72925;BME280;61070;50.794;7.054;2024-02-14T00:07:39;101074.63;;;8.22;69.95
72925;BME280;61070;50.794;7.054;2024-02-14T00:08:42;101079.66;;;8.28;69.59
72925;BME280;61070;50.794;7.054;2024-02-14T00:09:42;101075.81;;;8.40;69.16
72925;BME280;61070;50.794;7.054;2024-02-14T00:10:42;101073.00;;;8.46;68.49
72925;BME280;61070;50.794;7.054;2024-02-14T00:11:44;101071.66;;;8.33;69.27
72925;BME280;61070;50.794;7.054;2024-02-14T00:12:45;101069.19;;;8.28;69.36
72925;BME280;61070;50.794;7.054;2024-02-14T00:13:46;101078.56;;;8.36;69.36
72925;BME280;61070;50.794;7.054;2024-02-14T00:14:46;101076.13;;;8.29;69.39
72925;BME280;61070;50.794;7.054;2024-02-14T00:15:47;101062.31;;;8.26;69.60
72925;BME280;61070;50.794;7.054;2024-02-14T00:16:47;101071.81;;;8.28;69.47
72925;BME280;61070;50.794;7.054;2024-02-14T00:17:47;101072.34;;;8.40;68.66
72925;BME280;61070;50.794;7.054;2024-02-14T00:18:47;101068.19;;;8.33;69.14
72925;BME280;61070;50.794;7.054;2024-02-14T00:19:48;101077.09;;;8.27;69.59
72925;BME280;61070;50.794;7.054;2024-02-14T00:20:49;101070.31;;;8.21;69.86
72925;BME280;61070;50.794;7.054;2024-02-14T00:21:49;101074.72;;;8.19;69.81
72925;BME280;61070;50.794;7.054;2024-02-14T00:22:49;101064.16;;;8.22;69.75
72925;BME280;61070;50.794;7.054;2024-02-14T00:23:50;101062.53;;;8.18;69.90
72925;BME280;61070;50.794;7.054;2024-02-14T00:24:51;101064.34;;;8.16;70.03
72925;BME280;61070;50.794;7.054;2024-02-14T00:25:51;101066.13;;;8.16;70.25
72925;BME280;61070;50.794;7.054;2024-02-14T00:26:51;101066.84;;;8.19;70.22
72925;BME280;61070;50.794;7.054;2024-02-14T00:27:52;101061.69;;;8.18;69.82
72925;BME280;61070;50.794;7.054;2024-02-14T00:28:54;101059.78;;;8.23;69.81
72925;BME280;61070;50.794;7.054;2024-02-14T00:29:54;101069.44;;;8.21;70.20
72925;BME280;61070;50.794;7.054;2024-02-14T00:30:55;101069.53;;;8.18;70.05
72925;BME280;61070;50.794;7.054;2024-02-14T00:31:56;101067.66;;;8.49;69.18
72925;BME280;61070;50.794;7.054;2024-02-14T00:32:56;101069.69;;;8.41;69.54
72925;BME280;61070;50.794;7.054;2024-02-14T00:33:56;101062.41;;;8.49;69.28
72925;BME280;61070;50.794;7.054;2024-02-14T00:34:57;101076.50;;;8.47;69.35
72925;BME280;61070;50.794;7.054;2024-02-14T00:35:57;101071.50;;;8.39;69.51
72925;BME280;61070;50.794;7.054;2024-02-14T00:36:57;101083.50;;;8.46;69.36
72925;BME280;61070;50.794;7.054;2024-02-14T00:37:58;101068.09;;;8.36;69.60
72925;BME280;61070;50.794;7.054;2024-02-14T00:38:58;101072.50;;;8.34;69.81
72925;BME280;61070;50.794;7.054;2024-02-14T00:39:58;101067.34;;;8.32;69.68
72925;BME280;61070;50.794;7.054;2024-02-14T00:40:59;101071.75;;;8.30;70.08
72925;BME280;61070;50.794;7.054;2024-02-14T00:41:59;101069.97;;;8.32;70.20
72925;BME280;61070;50.794;7.054;2024-02-14T00:42:59;101063.94;;;8.28;69.97
72925;BME280;61070;50.794;7.054;2024-02-14T00:44:00;101068.19;;;8.33;70.16
72925;BME280;61070;50.794;7.054;2024-02-14T00:45:00;101071.34;;;8.44;69.67
72925;BME280;61070;50.794;7.054;2024-02-14T00:46:00;101067.63;;;8.51;69.23
72925;BME280;61070;50.794;7.054;2024-02-14T00:47:00;101072.19;;;8.44;69.54
72925;BME280;61070;50.794;7.054;2024-02-14T00:48:02;101073.19;;;8.40;69.87
72925;BME280;61070;50.794;7.054;2024-02-14T00:49:03;101073.59;;;8.54;69.53
72925;BME280;61070;50.794;7.054;2024-02-14T00:50:04;101064.19;;;8.49;69.79
72925;BME280;61070;50.794;7.054;2024-02-14T00:51:05;101070.44;;;8.45;70.09
72925;BME280;61070;50.794;7.054;2024-02-14T00:52:05;101063.69;;;8.38;70.40
72925;BME280;61070;50.794;7.054;2024-02-14T00:53:06;101067.97;;;8.40;70.47
72925;BME280;61070;50.794;7.054;2024-02-14T00:54:07;101058.78;;;8.53;70.09
72925;BME280;61070;50.794;7.054;2024-02-14T00:55:08;101062.03;;;8.62;69.69
72925;BME280;61070;50.794;7.054;2024-02-14T00:56:08;101058.44;;;8.64;69.73
72925;BME280;61070;50.794;7.054;2024-02-14T00:57:09;101054.25;;;8.59;69.68
72925;BME280;61070;50.794;7.054;2024-02-14T00:58:09;101058.03;;;8.50;70.38
72925;BME280;61070;50.794;7.054;2024-02-14T00:59:10;101055.25;;;8.54;70.82
72925;BME280;61070;50.794;7.054;2024-02-14T01:00:10;101057.88;;;8.54;70.28
72925;BME280;61070;50.794;7.054;2024-02-14T01:01:11;101058.94;;;8.49;70.58
72925;BME280;61070;50.794;7.054;2024-02-14T01:02:12;101059.16;;;8.43;70.96
72925;BME280;61070;50.794;7.054;2024-02-14T01:03:12;101052.22;;;8.42;71.22
72925;BME280;61070;50.794;7.054;2024-02-14T01:04:14;101051.09;;;8.49;71.05
72925;BME280;61070;50.794;7.054;2024-02-14T01:05:15;101051.16;;;8.47;71.10
72925;BME280;61070;50.794;7.054;2024-02-14T01:06:15;101050.84;;;8.57;70.85
72925;BME280;61070;50.794;7.054;2024-02-14T01:07:15;101055.78;;;8.66;70.35
72925;BME280;61070;50.794;7.054;2024-02-14T01:08:15;101055.97;;;8.60;70.71
72925;BME280;61070;50.794;7.054;2024-02-14T01:09:18;101061.03;;;8.66;70.71
72925;BME280;61070;50.794;7.054;2024-02-14T01:10:20;101043.56;;;8.65;70.61
72925;BME280;61070;50.794;7.054;2024-02-14T01:11:20;101042.06;;;8.58;71.16
72925;BME280;61070;50.794;7.054;2024-02-14T01:12:21;101035.38;;;8.49;71.18
72925;BME280;61070;50.794;7.054;2024-02-14T01:13:21;101039.41;;;8.59;71.11
72925;BME280;61070;50.794;7.054;2024-02-14T01:14:22;101029.78;;;8.60;71.34
72925;BME280;61070;50.794;7.054;2024-02-14T01:15:22;101036.78;;;8.59;71.33
72925;BME280;61070;50.794;7.054;2024-02-14T01:16:25;101029.03;;;8.56;71.29
72925;BME280;61070;50.794;7.054;2024-02-14T01:17:26;101028.47;;;8.73;70.81
72925;BME280;61070;50.794;7.054;2024-02-14T01:18:26;101030.44;;;8.66;70.98
72925;BME280;61070;50.794;7.054;2024-02-14T01:19:26;101035.06;;;8.58;71.22
72925;BME280;61070;50.794;7.054;2024-02-14T01:20:29;101028.34;;;8.51;71.62
72925;BME280;61070;50.794;7.054;2024-02-14T01:21:29;101028.44;;;8.48;71.78
72925;BME280;61070;50.794;7.054;2024-02-14T01:22:29;101027.22;;;8.58;71.29
72925;BME280;61070;50.794;7.054;2024-02-14T01:23:30;101024.88;;;8.50;71.85
72925;BME280;61070;50.794;7.054;2024-02-14T01:24:30;101023.59;;;8.62;71.41
72925;BME280;61070;50.794;7.054;2024-02-14T01:25:31;101023.50;;;8.65;71.31
72925;BME280;61070;50.794;7.054;2024-02-14T01:26:33;101019.16;;;8.64;71.34
72925;BME280;61070;50.794;7.054;2024-02-14T01:27:33;101025.66;;;8.52;71.94
72925;BME280;61070;50.794;7.054;2024-02-14T01:28:33;101027.53;;;8.49;72.24
72925;BME280;61070;50.794;7.054;2024-02-14T01:29:34;101028.97;;;8.58;71.83
72925;BME280;61070;50.794;7.054;2024-02-14T01:30:35;101025.94;;;8.70;71.49
72925;BME280;61070;50.794;7.054;2024-02-14T01:31:36;101027.16;;;8.60;71.75
72925;BME280;61070;50.794;7.054;2024-02-14T01:32:37;101025.44;;;8.59;71.76
72925;BME280;61070;50.794;7.054;2024-02-14T01:33:38;101022.44;;;8.71;71.36
72925;BME280;61070;50.794;7.054;2024-02-14T01:34:38;101024.38;;;8.64;71.60
72925;BME280;61070;50.794;7.054;2024-02-14T01:35:38;101016.34;;;8.70;71.41
72925;BME280;61070;50.794;7.054;2024-02-14T01:36:38;101018.81;;;8.73;71.39
72925;BME280;61070;50.794;7.054;2024-02-14T01:37:41;101007.66;;;8.68;71.86
72925;BME280;61070;50.794;7.054;2024-02-14T01:38:45;101017.50;;;8.87;71.25
72925;BME280;61070;50.794;7.054;2024-02-14T01:39:45;101022.28;;;8.75;71.29
72925;BME280;61070;50.794;7.054;2024-02-14T01:40:46;101018.28;;;8.64;71.84
72925;BME280;61070;50.794;7.054;2024-02-14T01:41:47;101018.28;;;8.64;72.07
72925;BME280;61070;50.794;7.054;2024-02-14T01:42:48;101018.44;;;8.59;72.19
72925;BME280;61070;50.794;7.054;2024-02-14T01:43:49;101018.25;;;8.65;72.18
72925;BME280;61070;50.794;7.054;2024-02-14T01:44:50;101017.66;;;8.57;72.32
72925;BME280;61070;50.794;7.054;2024-02-14T01:45:50;101011.59;;;8.55;72.08
72925;BME280;61070;50.794;7.054;2024-02-14T01:46:51;101009.25;;;8.47;72.50
72925;BME280;61070;50.794;7.054;2024-02-14T01:47:53;101010.31;;;8.42;72.73
72925;BME280;61070;50.794;7.054;2024-02-14T01:48:53;101009.19;;;8.49;72.62
72925;BME280;61070;50.794;7.054;2024-02-14T01:49:54;101020.16;;;8.60;72.02
72925;BME280;61070;50.794;7.054;2024-02-14T01:50:54;101021.44;;;8.48;72.79
72925;BME280;61070;50.794;7.054;2024-02-14T01:51:55;101012.25;;;8.35;73.09
72925;BME280;61070;50.794;7.054;2024-02-14T01:52:59;101020.97;;;8.36;73.13
72925;BME280;61070;50.794;7.054;2024-02-14T01:54:00;101013.31;;;8.29;73.59
72925;BME280;61070;50.794;7.054;2024-02-14T01:55:05;101016.63;;;8.36;73.53
72925;BME280;61070;50.794;7.054;2024-02-14T01:56:07;101017.19;;;8.46;72.95
72925;BME280;61070;50.794;7.054;2024-02-14T01:57:08;101016.56;;;8.38;73.38
72925;BME280;61070;50.794;7.054;2024-02-14T01:58:08;101021.19;;;8.56;72.73
72925;BME280;61070;50.794;7.054;2024-02-14T01:59:09;101018.13;;;8.43;73.10
72925;BME280;61070;50.794;7.054;2024-02-14T02:00:10;101019.81;;;8.44;73.06
72925;BME280;61070;50.794;7.054;2024-02-14T02:01:18;101018.22;;;8.40;73.44
72925;BME280;61070;50.794;7.054;2024-02-14T02:02:19;101025.56;;;8.56;72.91
72925;BME280;61070;50.794;7.054;2024-02-14T02:03:19;101027.91;;;8.63;72.75
72925;BME280;61070;50.794;7.054;2024-02-14T02:04:20;101017.66;;;8.57;73.08
72925;BME280;61070;50.794;7.054;2024-02-14T02:05:21;101015.94;;;8.56;73.20
72925;BME280;61070;50.794;7.054;2024-02-14T02:06:21;101014.28;;;8.53;73.35
72925;BME280;61070;50.794;7.054;2024-02-14T02:07:22;101015.25;;;8.51;73.54
72925;BME280;61070;50.794;7.054;2024-02-14T02:08:22;101013.72;;;8.45;73.85
72925;BME280;61070;50.794;7.054;2024-02-14T02:09:22;101006.69;;;8.46;73.51
72925;BME280;61070;50.794;7.054;2024-02-14T02:10:23;101010.50;;;8.62;73.11
72925;BME280;61070;50.794;7.054;2024-02-14T02:11:25;101009.19;;;8.74;72.86
72925;BME280;61070;50.794;7.054;2024-02-14T02:12:26;101008.56;;;8.67;72.86
72925;BME280;61070;50.794;7.054;2024-02-14T02:13:27;101008.47;;;8.70;72.49
72925;BME280;61070;50.794;7.054;2024-02-14T02:14:27;101001.19;;;8.53;73.50
72925;BME280;61070;50.794;7.054;2024-02-14T02:15:28;101004.09;;;8.44;74.11
72925;BME280;61070;50.794;7.054;2024-02-14T02:16:29;101003.09;;;8.48;73.70
72925;BME280;61070;50.794;7.054;2024-02-14T02:17:29;100997.94;;;8.47;73.80
72925;BME280;61070;50.794;7.054;2024-02-14T02:18:30;100994.34;;;8.49;73.85
72925;BME280;61070;50.794;7.054;2024-02-14T02:19:31;101010.97;;;8.48;73.89
72925;BME280;61070;50.794;7.054;2024-02-14T02:20:33;101006.56;;;8.49;74.00
72925;BME280;61070;50.794;7.054;2024-02-14T02:21:33;101012.56;;;8.52;73.83
72925;BME280;61070;50.794;7.054;2024-02-14T02:22:35;101001.47;;;8.46;74.32
72925;BME280;61070;50.794;7.054;2024-02-14T02:23:35;101008.50;;;8.44;74.36
72925;BME280;61070;50.794;7.054;2024-02-14T02:24:36;101016.81;;;8.57;73.87
72925;BME280;61070;50.794;7.054;2024-02-14T02:25:36;101004.63;;;8.56;74.17
72925;BME280;61070;50.794;7.054;2024-02-14T02:26:36;101012.41;;;8.57;73.95
72925;BME280;61070;50.794;7.054;2024-02-14T02:27:36;101008.41;;;8.47;74.46
72925;BME280;61070;50.794;7.054;2024-02-14T02:28:37;101009.19;;;8.49;74.42
72925;BME280;61070;50.794;7.054;2024-02-14T02:29:39;101017.03;;;8.50;74.48
72925;BME280;61070;50.794;7.054;2024-02-14T02:30:40;101015.56;;;8.42;74.64
72925;BME280;61070;50.794;7.054;2024-02-14T02:31:40;101005.88;;;8.44;74.84
72925;BME280;61070;50.794;7.054;2024-02-14T02:32:42;101017.19;;;8.44;74.96
72925;BME280;61070;50.794;7.054;2024-02-14T02:33:42;101009.03;;;8.53;74.14
72925;BME280;61070;50.794;7.054;2024-02-14T02:34:43;101017.91;;;8.49;74.37
72925;BME280;61070;50.794;7.054;2024-02-14T02:35:45;101013.84;;;8.41;75.34
72925;BME280;61070;50.794;7.054;2024-02-14T02:36:45;101001.63;;;8.41;74.99
72925;BME280;61070;50.794;7.054;2024-02-14T02:37:47;101002.50;;;8.40;75.24
72925;BME280;61070;50.794;7.054;2024-02-14T02:38:50;101003.97;;;8.49;74.72
72925;BME280;61070;50.794;7.054;2024-02-14T02:39:51;101007.72;;;8.40;75.04
72925;BME280;61070;50.794;7.054;2024-02-14T02:40:52;101011.38;;;8.35;75.72
72925;BME280;61070;50.794;7.054;2024-02-14T02:41:52;101015.75;;;8.36;75.41
72925;BME280;61070;50.794;7.054;2024-02-14T02:42:55;101011.88;;;8.47;75.08
72925;BME280;61070;50.794;7.054;2024-02-14T02:43:55;101018.75;;;8.50;74.84
72925;BME280;61070;50.794;7.054;2024-02-14T02:44:56;101023.97;;;8.51;74.85
72925;BME280;61070;50.794;7.054;2024-02-14T02:45:56;101023.09;;;8.51;74.97
72925;BME280;61070;50.794;7.054;2024-02-14T02:46:58;101014.34;;;8.52;74.94
72925;BME280;61070;50.794;7.054;2024-02-14T02:47:58;101019.50;;;8.53;75.26
72925;BME280;61070;50.794;7.054;2024-02-14T02:49:00;101016.97;;;8.52;74.83
72925;BME280;61070;50.794;7.054;2024-02-14T02:50:02;101021.28;;;8.53;74.90
72925;BME280;61070;50.794;7.054;2024-02-14T02:51:02;101017.59;;;8.59;74.80
72925;BME280;61070;50.794;7.054;2024-02-14T02:52:03;101015.34;;;8.48;75.12
72925;BME280;61070;50.794;7.054;2024-02-14T02:53:03;101015.25;;;8.51;75.28
72925;BME280;61070;50.794;7.054;2024-02-14T02:54:04;101018.66;;;8.53;74.84
72925;BME280;61070;50.794;7.054;2024-02-14T02:55:04;101014.50;;;8.47;75.25
72925;BME280;61070;50.794;7.054;2024-02-14T02:56:05;101014.56;;;8.46;75.24
72925;BME280;61070;50.794;7.054;2024-02-14T02:57:07;101012.03;;;8.43;75.30
72925;BME280;61070;50.794;7.054;2024-02-14T02:58:08;101019.03;;;8.42;75.66
72925;BME280;61070;50.794;7.054;2024-02-14T02:59:08;101019.81;;;8.44;75.47
72925;BME280;61070;50.794;7.054;2024-02-14T03:00:08;101026.72;;;8.47;75.23
72925;BME280;61070;50.794;7.054;2024-02-14T03:01:10;101025.19;;;8.41;75.39
72925;BME280;61070;50.794;7.054;2024-02-14T03:02:12;101028.38;;;8.49;75.28
72925;BME280;61070;50.794;7.054;2024-02-14T03:03:12;101026.81;;;8.44;75.56
72925;BME280;61070;50.794;7.054;2024-02-14T03:04:13;101029.56;;;8.41;75.62
72925;BME280;61070;50.794;7.054;2024-02-14T03:05:14;101033.97;;;8.39;76.16
72925;BME280;61070;50.794;7.054;2024-02-14T03:06:18;101039.13;;;8.42;75.68
72925;BME280;61070;50.794;7.054;2024-02-14T03:07:19;101041.03;;;8.37;75.79
72925;BME280;61070;50.794;7.054;2024-02-14T03:08:20;101035.88;;;8.34;75.98
72925;BME280;61070;50.794;7.054;2024-02-14T03:09:21;101047.31;;;8.31;75.98
72925;BME280;61070;50.794;7.054;2024-02-14T03:10:22;101044.78;;;8.28;76.00
72925;BME280;61070;50.794;7.054;2024-02-14T03:11:22;101043.94;;;8.27;76.36
72925;BME280;61070;50.794;7.054;2024-02-14T03:12:23;101049.06;;;8.31;76.10
72925;BME280;61070;50.794;7.054;2024-02-14T03:13:23;101042.94;;;8.30;76.09
72925;BME280;61070;50.794;7.054;2024-02-14T03:14:24;101043.84;;;8.31;76.22
72925;BME280;61070;50.794;7.054;2024-02-14T03:15:24;101059.47;;;8.32;76.36
72925;BME280;61070;50.794;7.054;2024-02-14T03:16:26;101047.41;;;8.28;76.37
72925;BME280;61070;50.794;7.054;2024-02-14T03:17:26;101048.25;;;8.28;76.35
72925;BME280;61070;50.794;7.054;2024-02-14T03:18:29;101044.78;;;8.28;76.57
72925;BME280;61070;50.794;7.054;2024-02-14T03:19:29;101042.94;;;8.30;76.35
72925;BME280;61070;50.794;7.054;2024-02-14T03:20:30;101045.63;;;8.28;76.22
72925;BME280;61070;50.794;7.054;2024-02-14T03:21:31;101046.41;;;8.32;76.33
72925;BME280;61070;50.794;7.054;2024-02-14T03:22:32;101050.78;;;8.32;76.49
72925;BME280;61070;50.794;7.054;2024-02-14T03:23:33;101048.19;;;8.30;76.37
72925;BME280;61070;50.794;7.054;2024-02-14T03:24:33;101048.31;;;8.27;76.46
72925;BME280;61070;50.794;7.054;2024-02-14T03:25:35;101050.00;;;8.28;76.38
72925;BME280;61070;50.794;7.054;2024-02-14T03:26:38;101050.94;;;8.27;76.67
72925;BME280;61070;50.794;7.054;2024-02-14T03:27:39;101053.41;;;8.30;76.79
72925;BME280;61070;50.794;7.054;2024-02-14T03:28:40;101050.88;;;8.28;76.44
72925;BME280;61070;50.794;7.054;2024-02-14T03:29:40;101055.25;;;8.28;76.71
72925;BME280;61070;50.794;7.054;2024-02-14T03:30:41;101054.34;;;8.29;76.95
72925;BME280;61070;50.794;7.054;2024-02-14T03:31:41;101050.06;;;8.26;76.69
72925;BME280;61070;50.794;7.054;2024-02-14T03:32:43;101053.63;;;8.24;76.71
72925;BME280;61070;50.794;7.054;2024-02-14T03:33:44;101051.38;;;8.40;76.49
72925;BME280;61070;50.794;7.054;2024-02-14T03:34:44;101048.94;;;8.34;76.43
72925;BME280;61070;50.794;7.054;2024-02-14T03:35:44;101055.09;;;8.33;76.66
72925;BME280;61070;50.794;7.054;2024-02-14T03:36:45;101051.50;;;8.35;76.52
72925;BME280;61070;50.794;7.054;2024-02-14T03:37:46;101053.34;;;8.33;76.65
72925;BME280;61070;50.794;7.054;2024-02-14T03:38:49;101050.88;;;8.28;77.08
72925;BME280;61070;50.794;7.054;2024-02-14T03:39:49;101043.00;;;8.28;76.70
72925;BME280;61070;50.794;7.054;2024-02-14T03:40:49;101043.97;;;8.26;77.07
72925;BME280;61070;50.794;7.054;2024-02-14T03:41:50;101048.25;;;8.28;76.98
72925;BME280;61070;50.794;7.054;2024-02-14T03:42:50;101048.16;;;8.32;76.90
72925;BME280;61070;50.794;7.054;2024-02-14T03:43:51;101036.72;;;8.34;76.58
72925;BME280;61070;50.794;7.054;2024-02-14T03:44:54;101043.78;;;8.32;76.78
72925;BME280;61070;50.794;7.054;2024-02-14T03:46:02;101031.63;;;8.29;76.98
72925;BME280;61070;50.794;7.054;2024-02-14T03:47:02;101045.00;;;8.48;76.21
72925;BME280;61070;50.794;7.054;2024-02-14T03:48:04;101042.59;;;8.42;76.61
72925;BME280;61070;50.794;7.054;2024-02-14T03:49:05;101050.31;;;8.47;76.38
72925;BME280;61070;50.794;7.054;2024-02-14T03:50:06;101039.97;;;8.42;76.53
72925;BME280;61070;50.794;7.054;2024-02-14T03:51:07;101034.94;;;8.35;77.07
72925;BME280;61070;50.794;7.054;2024-02-14T03:52:07;101040.19;;;8.35;76.95
72925;BME280;61070;50.794;7.054;2024-02-14T03:53:10;101032.38;;;8.33;76.96
72925;BME280;61070;50.794;7.054;2024-02-14T03:54:11;101042.91;;;8.32;77.37
72925;BME280;61070;50.794;7.054;2024-02-14T03:55:13;101040.34;;;8.30;77.24
72925;BME280;61070;50.794;7.054;2024-02-14T03:56:13;101037.63;;;8.33;77.67
72925;BME280;61070;50.794;7.054;2024-02-14T03:57:16;101043.53;;;8.40;76.75
72925;BME280;61070;50.794;7.054;2024-02-14T03:58:17;101043.59;;;8.38;77.33
72925;BME280;61070;50.794;7.054;2024-02-14T03:59:22;101040.19;;;8.35;77.21
72925;BME280;61070;50.794;7.054;2024-02-14T04:00:24;101028.84;;;8.36;77.22
72925;BME280;61070;50.794;7.054;2024-02-14T04:01:24;101038.31;;;8.40;76.84
72925;BME280;61070;50.794;7.054;2024-02-14T04:02:25;101041.03;;;8.35;77.13
72925;BME280;61070;50.794;7.054;2024-02-14T04:03:28;101039.41;;;8.33;77.38
72925;BME280;61070;50.794;7.054;2024-02-14T04:04:29;101034.06;;;8.36;77.08
72925;BME280;61070;50.794;7.054;2024-02-14T04:05:29;101037.56;;;8.36;77.21
72925;BME280;61070;50.794;7.054;2024-02-14T04:06:29;101043.50;;;8.41;77.14
72925;BME280;61070;50.794;7.054;2024-02-14T04:07:31;101046.91;;;8.43;77.23
72925;BME280;61070;50.794;7.054;2024-02-14T04:08:32;101045.16;;;8.44;76.92
72925;BME280;61070;50.794;7.054;2024-02-14T04:09:33;101042.44;;;8.47;76.83
72925;BME280;61070;50.794;7.054;2024-02-14T04:10:33;101045.91;;;8.47;77.08
72925;BME280;61070;50.794;7.054;2024-02-14T04:11:34;101051.16;;;8.47;76.84
72925;BME280;61070;50.794;7.054;2024-02-14T04:12:34;101043.38;;;8.44;77.05
72925;BME280;61070;50.794;7.054;2024-02-14T04:13:34;101040.78;;;8.44;77.05
72925;BME280;61070;50.794;7.054;2024-02-14T04:14:35;101042.44;;;8.47;77.27
72925;BME280;61070;50.794;7.054;2024-02-14T04:15:35;101038.84;;;8.49;76.78
72925;BME280;61070;50.794;7.054;2024-02-14T04:16:36;101048.47;;;8.49;76.92
72925;BME280;61070;50.794;7.054;2024-02-14T04:17:36;101047.38;;;8.56;76.63
72925;BME280;61070;50.794;7.054;2024-02-14T04:18:36;101042.22;;;8.53;76.90
72925;BME280;61070;50.794;7.054;2024-02-14T04:19:37;101046.84;;;8.46;77.21
72925;BME280;61070;50.794;7.054;2024-02-14T04:20:37;101053.00;;;8.44;77.46
72925;BME280;61070;50.794;7.054;2024-02-14T04:21:37;101049.69;;;8.39;77.37
72925;BME280;61070;50.794;7.054;2024-02-14T04:22:38;101056.75;;;8.37;77.77
72925;BME280;61070;50.794;7.054;2024-02-14T04:23:38;101049.81;;;8.34;77.86
72925;BME280;61070;50.794;7.054;2024-02-14T04:24:40;101048.03;;;8.36;77.80
72925;BME280;61070;50.794;7.054;2024-02-14T04:25:41;101046.16;;;8.40;77.66
72925;BME280;61070;50.794;7.054;2024-02-14T04:26:41;101058.41;;;8.39;77.61
72925;BME280;61070;50.794;7.054;2024-02-14T04:27:41;101047.91;;;8.41;77.73
72925;BME280;61070;50.794;7.054;2024-02-14T04:28:41;101053.97;;;8.41;77.65
72925;BME280;61070;50.794;7.054;2024-02-14T04:29:45;101047.91;;;8.41;77.50
72925;BME280;61070;50.794;7.054;2024-02-14T04:30:46;101045.44;;;8.36;77.90
72925;BME280;61070;50.794;7.054;2024-02-14T04:31:48;101045.41;;;8.35;77.67
72925;BME280;61070;50.794;7.054;2024-02-14T04:32:49;101048.03;;;8.36;77.54
72925;BME280;61070;50.794;7.054;2024-02-14T04:33:49;101042.88;;;8.33;77.78
72925;BME280;61070;50.794;7.054;2024-02-14T04:34:52;101050.78;;;8.32;77.71
72925;BME280;61070;50.794;7.054;2024-02-14T04:35:53;101043.88;;;8.29;77.85
72925;BME280;61070;50.794;7.054;2024-02-14T04:36:54;101050.81;;;8.30;77.76
72925;BME280;61070;50.794;7.054;2024-02-14T04:37:54;101040.34;;;8.30;77.68
72925;BME280;61070;50.794;7.054;2024-02-14T04:38:57;101044.78;;;8.28;78.07
72925;BME280;61070;50.794;7.054;2024-02-14T04:39:57;101044.56;;;8.34;77.86
72925;BME280;61070;50.794;7.054;2024-02-14T04:40:57;101054.88;;;8.40;77.46
72925;BME280;61070;50.794;7.054;2024-02-14T04:41:58;101050.66;;;8.35;77.48
72925;BME280;61070;50.794;7.054;2024-02-14T04:42:58;101047.91;;;8.41;77.59
72925;BME280;61070;50.794;7.054;2024-02-14T04:43:59;101046.84;;;8.45;77.01
72925;BME280;61070;50.794;7.054;2024-02-14T04:44:59;101053.06;;;8.42;77.21
72925;BME280;61070;50.794;7.054;2024-02-14T04:45:59;101048.78;;;8.40;77.16
72925;BME280;61070;50.794;7.054;2024-02-14T04:47:00;101044.50;;;8.37;77.47
72925;BME280;61070;50.794;7.054;2024-02-14T04:48:00;101048.84;;;8.38;77.43
72925;BME280;61070;50.794;7.054;2024-02-14T04:49:04;101045.38;;;8.38;77.50
72925;BME280;61070;50.794;7.054;2024-02-14T04:50:04;101051.31;;;8.43;77.25
72925;BME280;61070;50.794;7.054;2024-02-14T04:51:05;101049.69;;;8.39;77.56
72925;BME280;61070;50.794;7.054;2024-02-14T04:52:05;101048.53;;;8.47;77.24
72925;BME280;61070;50.794;7.054;2024-02-14T04:53:07;101053.91;;;8.43;77.35
72925;BME280;61070;50.794;7.054;2024-02-14T04:54:07;101043.53;;;8.40;77.51
72925;BME280;61070;50.794;7.054;2024-02-14T04:55:10;101048.75;;;8.41;77.56
72925;BME280;61070;50.794;7.054;2024-02-14T04:56:10;101047.91;;;8.41;77.52
72925;BME280;61070;50.794;7.054;2024-02-14T04:57:11;101054.06;;;8.38;77.81
72925;BME280;61070;50.794;7.054;2024-02-14T04:58:12;101047.16;;;8.36;78.16
72925;BME280;61070;50.794;7.054;2024-02-14T04:59:12;101045.31;;;8.39;77.87
72925;BME280;61070;50.794;7.054;2024-02-14T05:00:13;101051.00;;;8.52;77.36
72925;BME280;61070;50.794;7.054;2024-02-14T05:01:13;101054.56;;;8.49;77.30
72925;BME280;61070;50.794;7.054;2024-02-14T05:02:15;101055.59;;;8.45;77.47
72925;BME280;61070;50.794;7.054;2024-02-14T05:03:15;101056.47;;;8.44;77.60
72925;BME280;61070;50.794;7.054;2024-02-14T05:04:17;101052.22;;;8.42;77.99
72925;BME280;61070;50.794;7.054;2024-02-14T05:05:17;101053.16;;;8.39;77.90
72925;BME280;61070;50.794;7.054;2024-02-14T05:06:19;101056.63;;;8.40;77.99
72925;BME280;61070;50.794;7.054;2024-02-14T05:07:19;101061.06;;;8.38;77.94
72925;BME280;61070;50.794;7.054;2024-02-14T05:08:19;101051.63;;;8.32;78.20
72925;BME280;61070;50.794;7.054;2024-02-14T05:09:20;101055.09;;;8.33;78.16
72925;BME280;61070;50.794;7.054;2024-02-14T05:10:21;101057.63;;;8.36;77.99
72925;BME280;61070;50.794;7.054;2024-02-14T05:11:21;101051.63;;;8.32;78.07
72925;BME280;61070;50.794;7.054;2024-02-14T05:12:22;101055.25;;;8.28;78.22
72925;BME280;61070;50.794;7.054;2024-02-14T05:13:22;101055.34;;;8.25;78.38
72925;BME280;61070;50.794;7.054;2024-02-14T05:14:23;101051.94;;;8.23;78.51
72925;BME280;61070;50.794;7.054;2024-02-14T05:15:24;101055.47;;;8.20;78.54
72925;BME280;61070;50.794;7.054;2024-02-14T05:16:24;101059.06;;;8.18;78.36
72925;BME280;61070;50.794;7.054;2024-02-14T05:17:24;101053.88;;;8.16;78.47
72925;BME280;61070;50.794;7.054;2024-02-14T05:18:24;101047.84;;;8.14;78.79
72925;BME280;61070;50.794;7.054;2024-02-14T05:19:25;101058.31;;;8.14;79.08
72925;BME280;61070;50.794;7.054;2024-02-14T05:20:25;101058.28;;;8.16;78.77
72925;BME280;61070;50.794;7.054;2024-02-14T05:21:25;101056.69;;;8.10;78.73
72925;BME280;61070;50.794;7.054;2024-02-14T05:22:25;101068.06;;;8.09;79.05